createdAt,value
2018-08-19T00:00:25.576Z,26.20
2018-08-19T00:02:59.255Z,25.90
2018-08-19T00:05:29.540Z,20.93
2018-08-19T00:07:59.785Z,26.03
2018-08-19T00:11:12.433Z,20.20
2018-08-19T00:13:42.633Z,22.90
2018-08-19T00:16:13.011Z,16.90
2018-08-19T00:18:43.211Z,21.13
2018-08-19T00:21:13.433Z,28.50
2018-08-19T00:23:49.664Z,21.40
2018-08-19T00:26:19.931Z,24.43
2018-08-19T00:28:50.092Z,21.53
2018-08-19T00:31:20.240Z,21.40
2018-08-19T00:33:50.370Z,19.13
2018-08-19T00:36:33.270Z,18.97
2018-08-19T00:39:04.053Z,21.07
2018-08-19T00:41:34.172Z,16.27
2018-08-19T00:44:04.486Z,19.70
2018-08-19T00:46:34.754Z,18.97
2018-08-19T00:49:04.898Z,20.53
2018-08-19T00:51:35.082Z,19.13
2018-08-19T00:54:05.384Z,17.77
2018-08-19T00:56:36.764Z,23.13
2018-08-19T00:59:09.356Z,16.27
2018-08-19T01:01:39.580Z,17.60
2018-08-19T01:04:11.099Z,18.63
2018-08-19T01:06:46.267Z,17.20
2018-08-19T01:09:16.587Z,21.00
2018-08-19T01:11:46.871Z,18.60
2018-08-19T01:14:17.180Z,19.17
2018-08-19T01:16:47.358Z,19.07
2018-08-19T01:19:18.645Z,17.80
2018-08-19T01:21:50.707Z,18.40
2018-08-19T01:24:21.250Z,19.43
2018-08-19T01:26:51.370Z,18.30
2018-08-19T01:29:35.881Z,18.07
2018-08-19T01:32:12.312Z,16.57
2018-08-19T01:34:45.621Z,15.87
2018-08-19T01:37:16.228Z,19.60
2018-08-19T01:39:46.416Z,19.10
2018-08-19T01:42:16.561Z,21.37
2018-08-19T01:44:46.671Z,24.20
2018-08-19T01:47:16.770Z,16.47
2018-08-19T01:49:46.996Z,15.97
2018-08-19T01:52:17.071Z,16.40
2018-08-19T01:54:47.219Z,20.10
2018-08-19T01:57:17.360Z,19.37
2018-08-19T01:59:47.512Z,16.50
2018-08-19T02:02:17.681Z,17.47
2018-08-19T02:04:52.906Z,16.17
2018-08-19T02:07:23.070Z,13.73
2018-08-19T02:10:02.712Z,19.40
2018-08-19T02:12:38.569Z,16.93
2018-08-19T02:15:10.284Z,16.90
2018-08-19T02:17:46.191Z,16.57
2018-08-19T02:20:16.339Z,17.37
2018-08-19T02:22:51.849Z,16.10
2018-08-19T02:25:21.992Z,16.90
2018-08-19T02:27:52.126Z,20.83
2018-08-19T02:30:22.288Z,16.77
2018-08-19T02:32:55.760Z,17.73
2018-08-19T02:35:25.969Z,17.60
2018-08-19T02:37:56.133Z,20.20
2018-08-19T02:40:30.741Z,20.80
2018-08-19T02:43:01.002Z,18.97
2018-08-19T02:45:31.227Z,21.10
2018-08-19T02:48:01.398Z,18.13
2018-08-19T02:50:31.528Z,20.50
2018-08-19T02:53:01.613Z,17.77
2018-08-19T02:55:31.874Z,18.03
2018-08-19T02:58:06.943Z,19.60
2018-08-19T03:00:37.017Z,17.17
2018-08-19T03:03:07.306Z,17.10
2018-08-19T03:05:38.492Z,17.20
2018-08-19T03:08:08.619Z,16.97
2018-08-19T03:10:38.831Z,18.50
2018-08-19T03:13:08.935Z,16.30
2018-08-19T03:15:39.102Z,17.03
2018-08-19T03:18:09.220Z,15.40
2018-08-19T03:20:39.490Z,16.87
2018-08-19T03:23:10.715Z,16.77
2018-08-19T03:25:40.805Z,15.30
2018-08-19T03:28:10.993Z,16.73
2018-08-19T03:30:47.979Z,18.40
2018-08-19T03:33:18.001Z,17.10
2018-08-19T03:35:48.112Z,20.47
2018-08-19T03:38:18.244Z,16.30
2018-08-19T03:40:48.357Z,17.50
2018-08-19T03:43:18.523Z,17.27
2018-08-19T03:45:48.627Z,13.30
2018-08-19T03:48:18.709Z,14.00
2018-08-19T03:50:48.810Z,19.20
2018-08-19T03:53:18.822Z,14.60
2018-08-19T03:55:48.946Z,14.13
2018-08-19T03:58:19.062Z,14.70
2018-08-19T04:00:49.204Z,18.73
2018-08-19T04:03:25.141Z,16.17
2018-08-19T04:05:58.835Z,15.00
2018-08-19T04:08:40.284Z,15.60
2018-08-19T04:11:10.403Z,17.40
2018-08-19T04:13:41.594Z,14.50
2018-08-19T04:16:12.747Z,15.33
2018-08-19T04:18:45.265Z,20.17
2018-08-19T04:21:16.735Z,19.03
2018-08-19T04:23:49.451Z,16.17
2018-08-19T04:26:19.644Z,11.57
2018-08-19T04:28:49.780Z,15.20
2018-08-19T04:31:24.096Z,19.53
2018-08-19T04:33:56.327Z,13.70
2018-08-19T04:36:26.629Z,13.60
2018-08-19T04:38:57.266Z,13.17
2018-08-19T04:41:27.490Z,12.50
2018-08-19T04:43:57.635Z,18.10
2018-08-19T04:46:27.818Z,13.63
2018-08-19T04:48:57.896Z,11.57
2018-08-19T04:51:28.320Z,17.83
2018-08-19T04:53:58.403Z,18.93
2018-08-19T04:56:28.518Z,16.07
2018-08-19T04:58:58.669Z,13.70
2018-08-19T05:01:28.805Z,21.00
2018-08-19T05:03:58.912Z,11.53
2018-08-19T05:06:29.037Z,11.40
2018-08-19T05:08:59.203Z,12.10
2018-08-19T05:11:29.407Z,14.53
2018-08-19T05:14:00.386Z,14.60
2018-08-19T05:16:30.516Z,11.93
2018-08-19T05:19:05.230Z,17.07
2018-08-19T05:21:35.440Z,16.67
2018-08-19T05:24:05.531Z,17.40
2018-08-19T05:26:35.600Z,13.57
2018-08-19T05:29:11.473Z,13.27
2018-08-19T05:31:48.074Z,13.50
2018-08-19T05:34:22.222Z,13.30
2018-08-19T05:36:52.615Z,11.40
2018-08-19T05:39:22.789Z,13.30
2018-08-19T05:42:08.087Z,17.10
2018-08-19T05:44:39.328Z,12.50
2018-08-19T05:47:15.727Z,12.07
2018-08-19T05:49:46.809Z,13.87
2018-08-19T05:52:19.958Z,12.73
2018-08-19T05:55:07.502Z,10.83
2018-08-19T05:57:37.678Z,12.93
2018-08-19T06:00:13.100Z,13.23
2018-08-19T06:02:43.863Z,11.10
2018-08-19T06:05:14.055Z,10.53
2018-08-19T06:07:44.279Z,9.80
2018-08-19T06:10:14.359Z,10.23
2018-08-19T06:12:44.495Z,8.47
2018-08-19T06:15:14.709Z,9.07
2018-08-19T06:17:44.909Z,9.03
2018-08-19T06:20:15.077Z,10.70
2018-08-19T06:22:45.298Z,9.97
2018-08-19T06:25:15.501Z,12.70
2018-08-19T06:27:47.629Z,11.97
2018-08-19T06:30:18.840Z,9.57
2018-08-19T06:32:49.082Z,10.57
2018-08-19T06:35:19.287Z,12.13
2018-08-19T06:37:49.567Z,13.97
2018-08-19T06:40:21.819Z,7.30
2018-08-19T06:42:52.033Z,7.90
2018-08-19T06:45:22.243Z,9.67
2018-08-19T06:47:52.476Z,7.40
2018-08-19T06:50:25.642Z,8.83
2018-08-19T06:52:56.640Z,8.50
2018-08-19T06:55:26.925Z,7.97
2018-08-19T06:57:59.028Z,7.40
2018-08-19T07:00:30.199Z,6.50
2018-08-19T07:03:03.209Z,7.60
2018-08-19T07:05:34.133Z,6.63
2018-08-19T07:08:04.421Z,11.67
2018-08-19T07:10:39.451Z,7.17
2018-08-19T07:13:13.276Z,7.60
2018-08-19T07:15:44.697Z,10.27
2018-08-19T07:18:16.205Z,7.80
2018-08-19T07:20:46.386Z,10.90
2018-08-19T07:23:16.589Z,7.00
2018-08-19T07:25:47.046Z,6.60
2018-08-19T07:28:18.337Z,7.40
2018-08-19T07:30:48.488Z,5.03
2018-08-19T07:33:18.638Z,10.57
2018-08-19T07:35:48.694Z,7.30
2018-08-19T07:38:18.806Z,6.80
2018-08-19T07:40:48.902Z,7.13
2018-08-19T07:43:19.012Z,5.97
2018-08-19T07:45:49.096Z,7.43
2018-08-19T07:48:19.253Z,8.80
2018-08-19T07:50:49.391Z,7.60
2018-08-19T07:53:19.535Z,7.87
2018-08-19T07:55:49.628Z,8.47
2018-08-19T07:58:34.855Z,7.20
2018-08-19T08:01:05.026Z,8.37
2018-08-19T08:03:35.179Z,5.70
2018-08-19T08:06:05.371Z,8.17
2018-08-19T08:08:35.526Z,6.13
2018-08-19T08:11:05.845Z,8.27
2018-08-19T08:13:35.996Z,9.43
2018-08-19T08:16:06.079Z,7.20
2018-08-19T08:18:36.302Z,6.20
2018-08-19T08:21:12.652Z,5.90
2018-08-19T08:23:43.485Z,5.80
2018-08-19T08:26:13.681Z,11.10
2018-08-19T08:28:53.739Z,7.87
2018-08-19T08:31:23.869Z,6.07
2018-08-19T08:33:54.978Z,6.70
2018-08-19T08:36:25.117Z,6.43
2018-08-19T08:38:55.245Z,6.00
2018-08-19T08:41:25.376Z,6.60
2018-08-19T08:43:55.430Z,7.07
2018-08-19T08:46:25.541Z,7.13
2018-08-19T08:48:55.957Z,9.00
2018-08-19T08:51:26.102Z,9.77
2018-08-19T08:53:56.563Z,7.40
2018-08-19T08:56:26.812Z,8.63
2018-08-19T08:58:57.066Z,7.97
2018-08-19T09:01:27.315Z,7.03
2018-08-19T09:03:57.533Z,6.10
2018-08-19T09:06:28.694Z,6.43
2018-08-19T09:08:59.227Z,5.43
2018-08-19T09:11:29.429Z,6.87
2018-08-19T09:13:59.665Z,5.80
2018-08-19T09:16:29.803Z,6.43
2018-08-19T09:19:00.062Z,7.50
2018-08-19T09:21:30.219Z,9.60
2018-08-19T09:24:00.321Z,7.87
2018-08-19T09:26:30.454Z,8.67
2018-08-19T09:29:00.575Z,7.13
2018-08-19T09:31:30.815Z,6.87
2018-08-19T09:34:00.926Z,14.03
2018-08-19T09:36:31.169Z,7.13
2018-08-19T09:39:01.425Z,9.57
2018-08-19T09:41:31.532Z,10.70
2018-08-19T09:44:01.631Z,7.80
2018-08-19T09:46:31.753Z,10.60
2018-08-19T09:49:01.951Z,8.73
2018-08-19T09:51:32.105Z,7.27
2018-08-19T09:54:02.254Z,7.97
2018-08-19T09:56:37.462Z,6.83
2018-08-19T09:59:07.566Z,7.93
2018-08-19T10:01:46.603Z,6.93
2018-08-19T10:04:21.746Z,8.73
2018-08-19T10:07:00.647Z,8.97
2018-08-19T10:09:31.419Z,7.80
2018-08-19T10:12:01.490Z,11.33
2018-08-19T10:14:31.626Z,9.67
2018-08-19T10:17:01.745Z,11.87
2018-08-19T10:19:31.980Z,10.07
2018-08-19T10:22:02.170Z,8.43
2018-08-19T10:24:33.467Z,7.50
2018-08-19T10:27:07.969Z,10.30
2018-08-19T10:29:38.244Z,6.90
2018-08-19T10:32:08.435Z,9.87
2018-08-19T10:34:38.551Z,7.87
2018-08-19T10:37:08.842Z,8.83
2018-08-19T10:39:39.049Z,7.73
2018-08-19T10:42:22.175Z,8.60
2018-08-19T10:44:53.379Z,11.93
2018-08-19T10:47:23.513Z,11.10
2018-08-19T10:49:59.722Z,10.13
2018-08-19T10:52:31.417Z,7.73
2018-08-19T10:55:02.489Z,10.87
2018-08-19T10:57:32.710Z,11.30
2018-08-19T11:00:02.908Z,13.60
2018-08-19T11:02:33.134Z,11.00
2018-08-19T11:05:03.330Z,9.30
2018-08-19T11:07:33.435Z,10.27
2018-08-19T11:10:26.364Z,8.07
2018-08-19T11:12:57.957Z,9.00
2018-08-19T11:15:42.763Z,17.27
2018-08-19T11:18:24.862Z,10.03
2018-08-19T11:20:59.423Z,7.87
2018-08-19T11:23:29.655Z,10.60
2018-08-19T11:26:00.024Z,9.17
2018-08-19T11:28:38.596Z,8.10
2018-08-19T11:31:17.049Z,10.70
2018-08-19T11:33:47.301Z,10.77
2018-08-19T11:36:17.692Z,8.93
2018-08-19T11:38:51.889Z,8.90
2018-08-19T11:41:22.166Z,10.60
2018-08-19T11:43:52.646Z,9.73
2018-08-19T11:46:22.881Z,10.70
2018-08-19T11:48:58.188Z,9.10
2018-08-19T11:51:44.927Z,13.13
2018-08-19T11:54:16.070Z,9.17
2018-08-19T11:56:59.407Z,9.13
2018-08-19T11:59:33.521Z,9.20
2018-08-19T12:02:03.815Z,9.10
2018-08-19T12:04:33.995Z,8.47
2018-08-19T12:07:04.367Z,12.40
2018-08-19T12:09:34.611Z,12.03
2018-08-19T12:12:05.369Z,9.50
2018-08-19T12:14:37.362Z,12.10
2018-08-19T12:17:11.376Z,12.00
2018-08-19T12:19:43.639Z,9.70
2018-08-19T12:22:13.821Z,9.57
2018-08-19T12:24:45.832Z,10.10
2018-08-19T12:27:18.312Z,10.77
2018-08-19T12:29:48.472Z,10.53
2018-08-19T12:32:24.578Z,10.10
2018-08-19T12:35:02.044Z,8.60
2018-08-19T12:37:33.444Z,10.70
2018-08-19T12:40:03.582Z,12.10
2018-08-19T12:42:38.929Z,11.80
2018-08-19T12:45:09.614Z,8.87
2018-08-19T12:47:39.806Z,11.03
2018-08-19T12:50:14.426Z,11.57
2018-08-19T12:52:44.764Z,8.97
2018-08-19T12:55:17.234Z,11.07
2018-08-19T12:57:51.587Z,10.17
2018-08-19T13:00:26.818Z,8.63
2018-08-19T13:02:57.136Z,8.50
2018-08-19T13:05:27.388Z,11.00
2018-08-19T13:07:57.607Z,7.63
2018-08-19T13:10:37.283Z,7.97
2018-08-19T13:13:07.777Z,10.00
2018-08-19T13:15:37.889Z,13.17
2018-08-19T13:18:08.115Z,8.90
2018-08-19T13:20:38.320Z,7.17
2018-08-19T13:23:08.767Z,10.93
2018-08-19T13:25:38.879Z,12.17
2018-08-19T13:28:09.116Z,11.00
2018-08-19T13:30:39.178Z,9.70
2018-08-19T13:33:09.360Z,12.43
2018-08-19T13:35:39.485Z,11.67
2018-08-19T13:38:09.752Z,8.53
2018-08-19T13:40:39.943Z,8.13
2018-08-19T13:43:10.125Z,10.10
2018-08-19T13:45:40.236Z,9.07
2018-08-19T13:48:10.690Z,7.80
2018-08-19T13:50:40.865Z,8.97
2018-08-19T13:53:11.015Z,9.43
2018-08-19T13:55:41.231Z,11.70
2018-08-19T13:58:11.495Z,10.80
2018-08-19T14:00:41.591Z,8.00
2018-08-19T14:03:11.731Z,6.47
2018-08-19T14:05:41.870Z,9.77
2018-08-19T14:08:12.042Z,8.73
2018-08-19T14:10:42.235Z,11.90
2018-08-19T14:13:12.430Z,7.53
2018-08-19T14:15:42.733Z,8.20
2018-08-19T14:18:12.973Z,11.67
2018-08-19T14:20:43.093Z,9.10
2018-08-19T14:23:13.230Z,12.47
2018-08-19T14:25:43.377Z,7.10
2018-08-19T14:28:13.544Z,7.73
2018-08-19T14:30:43.803Z,9.20
2018-08-19T14:33:13.950Z,9.50
2018-08-19T14:35:44.086Z,9.97
2018-08-19T14:38:14.353Z,11.63
2018-08-19T14:40:44.459Z,8.73
2018-08-19T14:43:14.677Z,8.43
2018-08-19T14:45:45.000Z,10.97
2018-08-19T14:48:15.110Z,9.40
2018-08-19T14:50:45.647Z,9.60
2018-08-19T14:53:15.791Z,10.30
2018-08-19T14:55:45.957Z,10.67
2018-08-19T14:58:16.179Z,9.90
2018-08-19T15:00:46.295Z,18.20
2018-08-19T15:03:16.456Z,9.77
2018-08-19T15:06:01.233Z,10.43
2018-08-19T15:08:32.129Z,8.87
2018-08-19T15:11:05.291Z,12.13
2018-08-19T15:13:35.838Z,10.00
2018-08-19T15:16:06.070Z,11.47
2018-08-19T15:18:36.295Z,8.30
2018-08-19T15:21:06.412Z,11.50
2018-08-19T15:23:36.592Z,9.50
2018-08-19T15:26:06.787Z,11.27
2018-08-19T15:28:39.203Z,9.33
2018-08-19T15:31:14.541Z,10.97
2018-08-19T15:33:44.710Z,8.87
2018-08-19T15:36:14.904Z,8.77
2018-08-19T15:38:45.017Z,10.77
2018-08-19T15:41:15.657Z,8.80
2018-08-19T15:43:45.811Z,8.97
2018-08-19T15:46:16.118Z,9.60
2018-08-19T15:48:51.143Z,11.03
2018-08-19T15:51:21.277Z,10.50
2018-08-19T15:53:51.438Z,13.60
2018-08-19T15:56:21.684Z,12.53
2018-08-19T15:58:51.888Z,13.93
2018-08-19T16:01:30.076Z,9.97
2018-08-19T16:04:06.142Z,11.03
2018-08-19T16:06:36.362Z,11.90
2018-08-19T16:09:10.706Z,9.40
2018-08-19T16:11:40.831Z,10.03
2018-08-19T16:14:17.839Z,8.30
2018-08-19T16:16:48.063Z,9.70
2018-08-19T16:19:18.399Z,8.77
2018-08-19T16:21:53.070Z,10.33
2018-08-19T16:24:23.464Z,8.53
2018-08-19T16:26:53.846Z,10.37
2018-08-19T16:29:24.133Z,8.13
2018-08-19T16:31:54.439Z,9.93
2018-08-19T16:34:24.501Z,9.50
2018-08-19T16:36:54.615Z,8.87
2018-08-19T16:39:24.858Z,10.50
2018-08-19T16:41:54.873Z,10.47
2018-08-19T16:44:25.105Z,10.57
2018-08-19T16:46:55.409Z,11.47
2018-08-19T16:49:25.582Z,8.20
2018-08-19T16:51:55.749Z,9.43
2018-08-19T16:54:25.989Z,8.30
2018-08-19T16:56:56.153Z,8.80
2018-08-19T16:59:26.298Z,9.13
2018-08-19T17:01:56.418Z,12.53
2018-08-19T17:04:26.710Z,13.00
2018-08-19T17:06:56.792Z,9.03
2018-08-19T17:09:27.014Z,9.23
2018-08-19T17:11:57.072Z,12.63
2018-08-19T17:14:27.237Z,11.60
2018-08-19T17:16:57.367Z,9.57
2018-08-19T17:19:27.532Z,11.60
2018-08-19T17:21:57.711Z,9.70
2018-08-19T17:24:27.883Z,8.70
2018-08-19T17:27:03.111Z,9.53
2018-08-19T17:29:33.339Z,11.13
2018-08-19T17:32:03.422Z,9.93
2018-08-19T17:34:33.573Z,8.87
2018-08-19T17:37:03.806Z,9.60
2018-08-19T17:39:33.919Z,12.60
2018-08-19T17:42:04.156Z,8.30
2018-08-19T17:44:34.338Z,11.20
2018-08-19T17:47:04.598Z,10.50
2018-08-19T17:49:36.031Z,11.37
2018-08-19T17:52:06.282Z,14.17
2018-08-19T17:54:36.417Z,11.40
2018-08-19T17:57:06.641Z,10.97
2018-08-19T17:59:36.907Z,9.37
2018-08-19T18:02:07.336Z,10.97
2018-08-19T18:04:42.605Z,11.30
2018-08-19T18:07:15.097Z,10.07
2018-08-19T18:09:49.393Z,11.10
2018-08-19T18:12:21.967Z,14.13
2018-08-19T18:14:52.200Z,10.07
2018-08-19T18:17:22.433Z,11.13
2018-08-19T18:19:52.635Z,10.20
2018-08-19T18:22:23.013Z,8.43
2018-08-19T18:25:03.100Z,9.13
2018-08-19T18:27:33.284Z,14.03
2018-08-19T18:30:03.424Z,9.77
2018-08-19T18:32:33.566Z,10.33
2018-08-19T18:35:03.745Z,11.07
2018-08-19T18:37:33.877Z,8.67
2018-08-19T18:40:04.141Z,11.17
2018-08-19T18:42:40.379Z,12.13
2018-08-19T18:45:12.965Z,10.90
2018-08-19T18:47:51.429Z,14.93
2018-08-19T18:50:25.555Z,16.90
2018-08-19T18:52:55.869Z,10.03
2018-08-19T18:55:26.182Z,10.30
2018-08-19T18:57:57.393Z,9.83
2018-08-19T19:00:28.295Z,12.00
2018-08-19T19:03:01.448Z,12.93
2018-08-19T19:05:41.665Z,13.47
2018-08-19T19:08:12.906Z,9.30
2018-08-19T19:11:06.050Z,10.10
2018-08-19T19:13:36.749Z,15.00
2018-08-19T19:16:06.977Z,10.43
2018-08-19T19:18:37.079Z,10.93
2018-08-19T19:21:07.575Z,9.70
2018-08-19T19:23:40.067Z,11.90
2018-08-19T19:26:10.912Z,13.93
2018-08-19T19:28:41.045Z,12.80
2018-08-19T19:31:17.363Z,11.57
2018-08-19T19:33:47.455Z,10.73
2018-08-19T19:36:20.223Z,12.97
2018-08-19T19:38:57.197Z,12.53
2018-08-19T19:41:31.740Z,11.37
2018-08-19T19:44:24.483Z,13.70
2018-08-19T19:46:55.042Z,12.90
2018-08-19T19:49:25.096Z,18.13
2018-08-19T19:52:03.934Z,13.00
2018-08-19T19:54:34.944Z,13.50
2018-08-19T19:57:05.058Z,14.70
2018-08-19T19:59:35.674Z,12.17
2018-08-19T20:02:05.879Z,16.40
2018-08-19T20:04:37.068Z,15.53
2018-08-19T20:07:07.192Z,11.57
2018-08-19T20:09:37.452Z,13.97
2018-08-19T20:12:14.325Z,15.73
2018-08-19T20:14:51.510Z,15.90
2018-08-19T20:17:22.260Z,15.60
2018-08-19T20:19:52.427Z,15.83
2018-08-19T20:22:22.716Z,12.73
2018-08-19T20:24:53.038Z,16.47
2018-08-19T20:27:23.193Z,13.70
2018-08-19T20:29:54.943Z,17.03
2018-08-19T20:32:25.143Z,14.13
2018-08-19T20:34:55.280Z,13.13
2018-08-19T20:37:27.184Z,15.73
2018-08-19T20:39:57.243Z,14.50
2018-08-19T20:42:27.385Z,16.53
2018-08-19T20:44:57.430Z,15.00
2018-08-19T20:47:27.527Z,15.60
2018-08-19T20:49:57.679Z,19.00
2018-08-19T20:52:45.512Z,13.60
2018-08-19T20:55:15.914Z,16.97
2018-08-19T20:57:46.505Z,13.23
2018-08-19T21:00:16.720Z,16.00
2018-08-19T21:02:46.864Z,15.27
2018-08-19T21:05:16.977Z,19.27
2018-08-19T21:07:47.129Z,15.87
2018-08-19T21:10:17.315Z,14.33
2018-08-19T21:12:47.449Z,18.03
2018-08-19T21:15:22.984Z,14.43
2018-08-19T21:17:53.113Z,14.77
2018-08-19T21:20:23.196Z,15.00
2018-08-19T21:22:54.399Z,15.93
2018-08-19T21:25:24.677Z,14.63
2018-08-19T21:27:54.784Z,18.00
2018-08-19T21:30:25.173Z,13.80
2018-08-19T21:32:56.345Z,15.43
2018-08-19T21:35:26.696Z,15.63
2018-08-19T21:37:56.824Z,13.97
2018-08-19T21:40:33.943Z,13.30
2018-08-19T21:43:04.055Z,14.93
2018-08-19T21:45:34.672Z,14.90
2018-08-19T21:48:05.149Z,18.60
2018-08-19T21:50:35.256Z,18.20
2018-08-19T21:53:09.204Z,12.53
2018-08-19T21:55:42.390Z,16.77
2018-08-19T21:58:12.605Z,14.27
2018-08-19T22:01:04.475Z,16.40
2018-08-19T22:03:39.797Z,17.30
2018-08-19T22:06:10.238Z,17.77
2018-08-19T22:08:40.307Z,16.53
2018-08-19T22:11:10.485Z,16.60
2018-08-19T22:13:40.630Z,14.40
2018-08-19T22:16:10.716Z,13.73
2018-08-19T22:18:40.918Z,15.97
2018-08-19T22:21:18.433Z,14.87
2018-08-19T22:23:49.817Z,16.03
2018-08-19T22:26:21.030Z,16.83
2018-08-19T22:29:10.763Z,13.17
2018-08-19T22:31:40.949Z,12.50
2018-08-19T22:34:11.106Z,15.07
2018-08-19T22:36:41.193Z,17.93
2018-08-19T22:39:11.526Z,26.07
2018-08-19T22:41:41.590Z,12.17
2018-08-19T22:44:11.726Z,12.13
2018-08-19T22:46:41.838Z,14.17
2018-08-19T22:49:11.977Z,15.93
2018-08-19T22:51:42.196Z,13.80
2018-08-19T22:54:12.339Z,14.53
2018-08-19T22:56:42.404Z,13.27
2018-08-19T22:59:12.483Z,16.03
2018-08-19T23:01:49.290Z,17.73
2018-08-19T23:04:19.466Z,16.27
2018-08-19T23:06:49.576Z,14.73
2018-08-19T23:09:19.690Z,17.00
2018-08-19T23:11:49.747Z,15.77
2018-08-19T23:14:36.502Z,12.40
2018-08-19T23:17:09.447Z,15.30
2018-08-19T23:19:39.650Z,15.63
2018-08-19T23:22:09.785Z,16.27
2018-08-19T23:24:39.948Z,14.70
2018-08-19T23:27:10.021Z,14.20
2018-08-19T23:29:40.161Z,17.23
2018-08-19T23:32:10.394Z,13.20
2018-08-19T23:34:40.546Z,15.17
2018-08-19T23:37:17.279Z,13.53
2018-08-19T23:39:47.371Z,12.63
2018-08-19T23:42:17.409Z,15.50
2018-08-19T23:44:47.484Z,18.10
2018-08-19T23:47:18.233Z,16.90
2018-08-19T23:49:48.322Z,15.50
2018-08-19T23:52:18.410Z,12.80
2018-08-19T23:54:48.618Z,16.60
2018-08-19T23:57:18.785Z,14.33
2018-08-19T23:59:48.921Z,13.43
